Bark at the Moon Night Run 5k
Victoria, TX
September 22, 2012
     
Results by www.iaapweb.com  
Software by ChuckScore  
     
Male 1-14 15-19 20-29 30-39 40-49 50-59 60-69
Female 1-14 15-19 20-29 30-39 40-49 50-59 60-69
Top Male
  Overall Overall State/
Place Name Bib Gun Tag Pace Place by Sex City County
1 Gussman,Chris 1695 19:25.5 19:25.0 6:15 1 1 Victoria TX
Go To Top
Top Female
  Overall Overall State/
Place Name Bib Gun Tag Pace Place by Sex City County
1 High,Courtney 1721 19:31.3 19:30.4 6:17 2 1 Inez TX
Go To Top
1-14 Male
  Overall Overall State/
Place Name Bib Gun Tag Pace Place by Sex City County
1 Wendel,Aaron 1456 23:53.6 23:36.4 7:36 18 13 Victoria TX
2 Hayden,Jaron 1366 23:55.6 23:48.5 7:40 19 14 Edna TX
3 Young,Tomas 1463 25:25.5 25:19.8 8:09 27 19 Victoria TX
4 Wesar,Johnathan 1458 32:19.1 32:02.7 10:19 61 36 Victoria TX
5 Mendez,Jeremiah 1404 32:54.0 32:54.0 10:35 68 38 Victoria TX
6 Wagner,Cj 1455 34:34.3 33:56.7 10:56 79 40 Victoria TX
7 Beyer,Kolby 1313 34:44.6 34:18.4 11:03 82 41 Victoria TX
8 Henry,Grant 1712 38:09.9 37:24.7 12:02 100 45
9 Seiler,Will 1707 39:05.1 39:05.1 12:35 111 48
10 Garcia,Anthony 1358 40:20.7 39:51.1 12:50 114 49 Victoria TX
11 DeLeon,Aidan 1718 40:32.2 39:51.2 12:50 115 50 Victoria TX
12 Lawrence,Trey 1715 52:40.9 51:53.6 16:42 163 54 Victoria TX
13 Martin,Austin 1474 52:24.3 52:21.9 16:51 165 55
Go To Top
15-19 Male
  Overall Overall State/
Place Name Bib Gun Tag Pace Place by Sex City County
1 Kneupper,Cody 1387 24:09.7 24:08.4 7:46 21 16 Victoria TX
2 Burns,Seth 1328 24:46.3 24:44.9 7:58 25 17 Victoria TX
3 Horelka,Chaston 1703 56:27.4 55:18.4 17:48 189 60 Victoria
Go To Top
20-29 Male
  Overall Overall State/
Place Name Bib Gun Tag Pace Place by Sex City County
1 Singel,Matt 1689 21:51.3 21:50.3 7:02 9 5 Corpus Christi TX
2 Shaw,Jared 1435 22:02.3 21:57.3 7:04 10 6 Victoria TX
3 Delossantos,Eric 1344 26:24.1 26:14.4 8:27 34 25 Victoria TX
4 Bennett,John 1310 27:49.4 27:25.2 8:50 36 26 Victoria TX
5 Boyd,Jarrod 1320 28:33.2 28:29.1 9:10 44 30 Victoria TX
6 Cattan,Conly 1332 31:49.2 31:31.7 10:09 58 35 Victoria TX
7 Sanchez,Andrew 1433 45:13.3 44:42.2 14:23 133 51 Port Lavaca TX
8 Villareal,Manuel 1499 53:44.4 53:07.0 17:06 168 56 Victoria TX
9 Mcneely,Nick 1402 54:48.4 53:39.7 17:16 171 57 Victoria TX
Go To Top
30-39 Male
  Overall Overall State/
Place Name Bib Gun Tag Pace Place by Sex City County
1 Burklow,Adam 1687 20:01.3 20:00.3 6:26 3 2 Victoria TX
2 Shaw,Caleb 1434 22:02.8 22:00.8 7:05 12 7 Victoria TX
3 Madigan,Brad 1392 22:41.7 22:33.9 7:16 15 10 Victoria TX
4 Wilfert,Aaron 1682 25:50.9 25:38.1 8:15 29 21 Edna TX
5 Hayden,Jason 1367 25:51.6 25:43.2 8:17 30 22 Edna TX
6 Shepard,Tim 1685 26:17.3 26:07.7 8:25 33 24 Victoria TX
7 Ranly,Chris 1426 29:40.1 29:28.3 9:29 46 32 Hallettsville TX
8 Miller,David 1405 30:22.9 30:03.9 9:41 48 33 Victoria TX
9 Bird,Alan 1315 32:22.0 32:10.9 10:21 62 37 Port Lavaca TX
10 Beyer,Tommy 1314 34:45.0 34:18.5 11:03 83 42 Victoria TX
11 Kincaid,Kyle 1385 56:52.2 55:03.0 17:43 183 58 Victoria TX
Go To Top
40-49 Male
  Overall Overall State/
Place Name Bib Gun Tag Pace Place by Sex City County
1 Klemczyk,John 1688 22:21.9 22:14.8 7:10 13 8 Victoria TX
2 Temple,Kevin 1448 23:12.8 23:08.2 7:27 16 11 Victoria TX
3 Bratton,Joe 1490 23:58.2 23:34.8 7:35 17 12 Victoria
4 Rogers,John 1430 24:19.3 23:54.2 7:42 20 15 Edna TX
5 Trevino,Nacho 1711 26:31.4 25:27.5 8:12 28 20 Victoria TX
6 Polasek,Paul 1422 26:05.3 25:58.2 8:22 32 23 Victoria TX
7 Wagner,Chris 1716 28:24.0 27:53.0 8:58 40 27 Victoria TX
8 Arnold,David 1303 29:12.7 28:54.8 9:18 45 31 Victoria TX
9 Lopez,Martin 1389 33:38.0 33:18.3 10:43 71 39 Victoria TX
10 Dunbar,Jeff 1347 37:00.8 36:42.7 11:49 92 43 Ganado TX
11 Starkey,Troy 1444 38:21.2 38:06.0 12:16 107 46 Victoria TX
12 Vonderau,Michael 1453 39:04.8 38:42.4 12:27 110 47 Victoria TX
13 Seiler,Douglas 1710 52:46.0 51:40.5 16:38 161 52
14 Lawrence,Roger 1713 52:41.7 51:52.8 16:42 162 53 Victoria TX
15 Horelka,Rodney 1704 56:27.9 55:16.6 17:47 187 59 Victoria TX
Go To Top
50-59 Male
  Overall Overall State/
Place Name Bib Gun Tag Pace Place by Sex City County
1 Fezchak,Michael 1496 20:27.3 20:27.2 6:35 5 3 Victoria TX
2 Hernandez,Arthur 1372 21:19.4 21:17.0 6:51 7 4 Victoria TX
3 Resypal,Paul 1724 22:19.9 22:16.8 7:10 14 9
4 Cooke,Mark 1338 25:07.5 25:04.2 8:04 26 18 Victoria TX
5 Lyman,Robert 1390 28:05.9 27:56.1 8:59 41 28 Victoria TX
6 Boyd,Larry 1321 31:34.4 31:23.2 10:06 57 34 Victoria TX
7 Hlavac,Larry 1374 37:07.7 36:44.0 11:49 94 44 Shiner TX
Go To Top
60-69 Male
  Overall Overall State/
Place Name Bib Gun Tag Pace Place by Sex City County
1 Johnson,Lane 1379 28:19.3 28:04.1 9:02 42 29 Victoria TX
Go To Top
1-14 Female
  Overall Overall State/
Place Name Bib Gun Tag Pace Place by Sex City County
1 Delagarza,Andrea 1342 20:14.4 20:12.8 6:30 4 2 Goliad TX
2 Hayden,Kali 1368 34:51.1 34:43.1 11:10 86 44 Edna TX
3 Heard,Reagan 1465 38:28.2 37:45.2 12:09 101 56 Victoria TX
4 Murphy,Ansley 1466 38:28.5 37:45.5 12:09 102 57 Victoria TX
5 McKinney,Kate 1493 37:58.0 37:54.3 12:12 104 59 Victoria TX
6 Moore,Jordan 1411 40:38.1 40:12.3 12:56 118 68 Yoakum TX
7 Czaplinski,Katya 1340 40:35.9 40:21.0 12:59 120 70 Hallettsville TX
8 Henry,Presley 1371 41:17.8 40:31.9 13:03 122 72 Victoria TX
9 Salinas,Larissa 1481 41:48.8 41:29.2 13:21 124 74
10 DeLeon,Bella 1719 44:16.8 43:35.7 14:02 130 80 Victoria TX
11 Beyer,Kathryn 1312 47:50.8 47:23.5 15:15 146 95 Victoria TX
12 Vanek,Mikaela 1451 49:01.0 48:06.2 15:29 149 98 Inez TX
13 Seiler,Emma 1708 52:22.5 52:20.9 16:51 164 110
14 Horelka,Conner 1701 56:03.8 54:54.2 17:40 181 124 Victoria
15 Horelka,Callee 1702 56:16.4 55:05.0 17:44 184 126 Victoria
16 Horelke,Clare 1700 56:27.2 55:17.8 17:48 188 129 Victoria TX
17 Consley,Madelyne 1337 58:07.7 58:07.7 18:43 192 132 Houston TX
Go To Top
15-19 Female
  Overall Overall State/
Place Name Bib Gun Tag Pace Place by Sex City County
1 High,Cassidy 1720 21:07.0 21:06.1 6:48 6 3 Inez TX
2 Burns,Hope 1327 27:48.4 27:46.5 8:56 39 13 Victoria TX
3 Skipper,Emily 1723 52:51.9 51:35.7 16:36 159 108 Victoria TX
4 Hammack,Sarah 1364 55:15.0 54:27.4 17:32 179 122 Victoria TX
Go To Top
20-29 Female
  Overall Overall State/
Place Name Bib Gun Tag Pace Place by Sex City County
1 Kwiatkowski,Heather 1388 22:03.2 22:00.6 7:05 11 5 Victoria TX
2 Ranly,Katy 1427 29:49.6 29:37.2 9:32 47 15 Hallettsville TX
3 Miller,Karisa 1406 30:33.1 30:22.6 9:47 54 21 Victoria TX
4 Friedrichs,Wendee 1356 32:38.6 32:19.7 10:24 63 26 Corpus Christi TX
5 Dunbar,Megan 1348 34:36.5 34:18.1 11:02 81 41 Ganado TX
6 Cattan,Megan 1333 35:20.5 35:14.6 11:21 88 46 Victoria TX
7 Perez,Ana 1420 43:44.2 43:38.2 14:03 131 81 Corpus Christi TX
8 Gonzales,Heather 1362 45:12.4 44:41.9 14:23 132 82 Port Lavaca TX
9 Fikes,Kendal 1352 45:29.5 44:56.5 14:28 136 85 Lolita TX
10 Horne,Ashton 1376 45:51.3 45:19.2 14:35 139 88 Victoria TX
11 Maughan,Jade 1698 49:56.7 49:23.5 15:54 152 101 Victoria TX
12 Ramirez,Erica 1425 54:56.9 53:36.8 17:15 170 114 Victoria TX
13 Sprague,Lacey 1442 55:08.1 54:11.8 17:27 174 117 Edna TX
14 Etzler,Kelly 1349 55:07.3 54:17.9 17:29 176 119 Hallettsville TX
15 Nastoupil,Tierra 1414 57:37.5 56:53.5 18:19 190 130 Victoria TX
16 Schmedt,Jacklyn 1494 1:00:33.7 59:29.4 19:09 194 134 Victoria TX
Go To Top
30-39 Female
  Overall Overall State/
Place Name Bib Gun Tag Pace Place by Sex City County
1 Neibrandt,Grace 1415 24:31.8 24:22.3 7:51 22 6 Victoria TX
2 Bratton,Brandee 1491 24:39.5 24:35.1 7:55 23 7 Victoria
3 Dorsett,Susan 1469 26:01.7 25:54.1 8:20 31 9
4 Shepard,Jannet 1437 27:45.0 27:36.2 8:53 37 11 Victoria TX
5 Bradley,Sarah 1324 28:08.6 27:44.6 8:56 38 12 Edna TX
6 Arnold,Erin 1304 28:34.6 28:17.1 9:06 43 14 Victoria TX
7 Hayden,Kari 1369 30:18.5 30:10.0 9:43 49 16 Edna TX
8 Repper,Julie 1428 31:18.7 31:04.1 10:00 55 22 Victoria TX
9 Temple,Deeda 1447 31:16.7 31:07.6 10:01 56 23 Victoria TX
10 Stone,Brandy 1445 31:58.3 31:41.2 10:12 59 24 Victoria TX
11 Otto,Lacie 1417 31:57.7 31:48.9 10:14 60 25 Victoria TX
12 Harrell,Lisa 1365 32:46.6 32:29.9 10:28 64 27 Conroe TX
13 Ramirez,Renee 1478 32:51.8 32:35.5 10:29 65 28
14 Filla,Jennifer 1353 33:43.3 33:38.0 10:50 72 33 Victoria TX
15 Mitchell,Shawna 1495 34:21.8 33:38.0 10:50 73 34 Victoria TX
16 Novak,Robyn 1416 34:52.2 34:38.7 11:09 85 43 Ganado TX
17 Matula,Morgan 1399 36:36.0 36:23.9 11:43 91 49 Hallettsville TX
18 Mulenex,Christina 1412 37:03.3 36:48.4 11:51 95 51 Edna TX
19 Sodolak,Amy 1441 37:23.6 36:53.9 11:53 96 52 Inez TX
20 Kern,Amanda 1383 37:49.5 37:20.0 12:01 99 55 Victoria TX
21 McKinney,Carrie 1492 37:58.2 37:54.5 12:12 105 60 Victoria TX
22 Salais,Laurie 1479 38:35.2 38:19.1 12:20 108 62
23 Garcia,Jackie 1359 40:21.2 39:51.0 12:50 113 65 Victoria TX
24 Deleon,April 1709 40:51.1 40:10.4 12:56 117 67 Victoria TX
25 Trenck,Teresa 1449 40:30.4 40:17.8 12:58 119 69 Victoria TX
26 Fuentez,Tina 1357 40:22.0 40:22.0 13:00 121 71 Victoria TX
27 Trevino,Michelle 1484 45:29.4 44:55.5 14:28 134 83
28 Carrera,Melissa 1686 45:57.2 44:55.6 14:28 135 84 Victoria TX
29 Cardenas,Courtney 1330 45:51.5 45:18.0 14:35 138 87 Edna TX
30 Martinez,Adriana 1395 46:29.0 45:57.0 14:47 143 92 Victoria TX
31 Mavek,Allison 1699 47:43.4 47:22.3 15:15 145 94 Victoria TX
32 Beyer,Genevieve 1311 47:51.8 47:24.5 15:16 147 96 Victoria TX
33 Karnei,Clara 1473 49:20.7 48:32.1 15:37 150 99
34 Blackmon,Rachel 1316 49:56.4 49:23.7 15:54 153 102 Midfield TX
35 Kilgore,Vanessa 1384 54:50.4 53:42.0 17:17 172 115 Cuero TX
36 Fleming,Melissa 1354 55:14.1 53:53.4 17:21 173 116 Houston TX
37 Moore,Holly 1410 55:11.4 54:16.0 17:28 175 118 Victoria TX
38 Kemp,Valerie 1382 55:10.0 54:21.9 17:30 177 120 Victoria TX
39 Starkey,Kelly 1467 55:15.1 54:27.6 17:32 180 123 Victoria TX
40 Kinciad,Holly 1386 56:51.9 55:02.5 17:43 182 125 Victoria TX
41 Horelka,Jill 1705 56:27.7 55:14.6 17:47 185 127 Victoria
42 Lawerance,Lori 1714 1:02:03.9 1:01:16.9 19:43 195 135 Victoria TX
Go To Top
40-49 Female
  Overall Overall State/
Place Name Bib Gun Tag Pace Place by Sex City County
1 Bohac,Melody 1317 30:11.0 30:11.0 9:43 50 17 Victoria TX
2 Brown,Dawn 1325 30:35.3 30:11.7 9:43 51 18 Victoria TX
3 Mcelroy,Jamie 1401 30:35.0 30:12.5 9:43 52 19 Victoria TX
4 Verduzco,Cathy 1485 30:36.2 30:14.6 9:44 53 20
5 Moore,Desiree 1409 32:53.5 32:39.7 10:31 67 30 Yoakum TX
6 Prokup,Debbie 1424 33:28.1 33:05.7 10:39 70 32 Victoria TX
7 Van Baak,Eileen 1696 34:08.9 33:42.3 10:51 74 35 Victoria TX
8 Martinez,Lydia 1396 33:51.4 33:46.9 10:52 76 37 Bloomington TX
9 Hadash,Nanci 1363 34:18.3 33:55.4 10:55 77 38 Hallettsville TX
10 Bozka,Carol 1322 34:18.4 33:55.8 10:55 78 39 Hallettsville TX
11 Howard,Lisa 1378 34:24.3 34:19.0 11:03 84 42 Victoria TX
12 Figueroa,Delphine 1351 35:13.8 34:53.3 11:14 87 45 Victoria TX
13 Delagarza,Angelina 1343 35:51.1 35:30.2 11:26 89 47 Goliad TX
14 Wesar,Melinda 1459 37:11.4 36:57.2 11:54 97 53 Victoria TX
15 Rollins,Kim 1500 37:12.1 37:02.0 11:55 98 54 Victoria TX
16 Heard,Rachel 1464 38:30.0 37:47.5 12:10 103 58 Victoria TX
17 Czaplinski,Marla 1341 38:16.3 38:02.1 12:15 106 61 Hallettsville TX
18 Wagner,Chrissy 1454 39:47.0 39:19.4 12:39 112 64 Victoria TX
19 Owen,Mary 1691 40:21.8 39:53.3 12:50 116 66 Victoria TX
20 Henry,Amy 1370 41:17.0 40:33.0 13:03 123 73 Victoria TX
21 Salinas,Elvira 1480 41:49.4 41:30.2 13:21 125 75
22 Turner,Lorraine 1450 42:03.0 41:41.9 13:25 126 76 Victoria TX
23 Murphy,Alexandra 1693 45:58.0 44:58.2 14:28 137 86 Columbus TX
24 Pozzi,Kerry 1423 47:43.4 47:22.0 15:15 144 93 Victoria TX
25 Bassano,Ronda 1307 49:01.1 48:04.8 15:29 148 97 Inez TX
26 Barrientes,Erminia 1306 49:45.7 49:06.5 15:48 151 100 Victoria TX
27 Wendel,Amanda 1457 51:26.8 50:23.9 16:13 154 103 Victoria TX
28 Hensley,Karen 1472 51:17.5 50:26.8 16:14 156 105
29 Wood,Denise 1461 51:30.2 50:28.0 16:15 157 106 Victoria TX
30 Brimberry,Lisa 1722 52:54.8 51:36.5 16:37 160 109 Victoria TX
31 Rivera,Donna 1497 53:46.3 53:09.1 17:06 169 113 Victoria TX
32 Consley,Karen 1336 58:08.0 58:08.0 18:43 193 133 Houston TX
Go To Top
50-59 Female
  Overall Overall State/
Place Name Bib Gun Tag Pace Place by Sex City County
1 Manning,Kathy 1393 21:29.6 21:23.2 6:53 8 4 Victoria TX
2 Hernandez,Minny 1728 26:41.8 26:26.1 8:31 35 10 San Antonio TX
3 Kallus,Kathy 1381 32:48.3 32:37.2 10:30 66 29 Victoria TX
4 Murphy,Shelly 1413 33:27.4 32:59.0 10:37 69 31 Victoria TX
5 Story,Tressa 1483 33:57.5 33:46.2 10:52 75 36
6 Byron,Eilen 1725 34:37.0 34:02.7 10:57 80 40
7 Calcote,Rachel 1487 36:17.6 36:03.5 11:36 90 48 Victoria TX
8 Hlavac,Barbara 1373 37:07.5 36:43.9 11:49 93 50 Hallettsville TX
9 Clay,Diana 1488 38:44.0 38:37.6 12:26 109 63 Victoria TX
10 Blount,Jossie 1690 44:21.1 43:15.7 13:55 127 77 Cat Spring TX
11 Hamm,Brenda 1471 43:23.0 43:19.3 13:57 128 78
12 Acosta,Sylvia 1301 43:20.0 43:20.0 13:57 129 79 Victoria TX
13 Boyd,Gayle 1319 45:40.1 45:28.0 14:38 140 89 Victoria TX
14 Faultersack,Eny 1350 46:06.0 45:31.2 14:39 141 90 Victoria TX
15 Heltor,Debbie 1694 46:48.9 45:54.8 14:47 142 91 Victoria TX
16 Martin,Katie 1394 51:14.7 50:25.1 16:14 155 104 Goliad TX
17 Dick,Jackie 1345 52:27.5 51:22.6 16:32 158 107 Victoria TX
18 Gothmann,Billie 1692 53:20.2 52:22.5 16:51 166 111 Columbus TX
19 Hagel,Barbara 1470 53:47.0 52:32.7 16:55 167 112
20 Marusak,Janna 1476 58:29.6 57:09.9 18:24 191 131
Go To Top
60-69 Female
  Overall Overall State/
Place Name Bib Gun Tag Pace Place by Sex City County
1 Rusch,Dorothy 1431 24:43.2 24:38.6 7:56 24 8 Victoria TX
2 Calaway,Clarice 1329 56:04.6 54:25.9 17:31 178 121 Victoria TX
3 Reed,Joy 1706 56:29.5 55:16.5 17:47 186 128 Victoria TX